createdAt,value
2018-07-19T00:00:35.844Z,18.07
2018-07-19T00:01:42.315Z,18.09
2018-07-19T00:02:48.804Z,18.06
2018-07-19T00:03:55.781Z,18.02
2018-07-19T00:05:01.775Z,17.97
2018-07-19T00:06:08.254Z,17.94
2018-07-19T00:07:14.738Z,17.90
2018-07-19T00:08:21.215Z,17.92
2018-07-19T00:09:27.701Z,17.94
2018-07-19T00:10:34.173Z,17.95
2018-07-19T00:11:40.657Z,17.90
2018-07-19T00:12:47.152Z,17.85
2018-07-19T00:13:53.629Z,17.78
2018-07-19T00:15:00.106Z,17.73
2018-07-19T00:16:06.571Z,17.67
2018-07-19T00:17:13.065Z,17.62
2018-07-19T00:18:19.540Z,17.58
2018-07-19T00:19:26.004Z,17.56
2018-07-19T00:20:32.490Z,17.54
2018-07-19T00:21:39.467Z,17.53
2018-07-19T00:22:45.442Z,17.53
2018-07-19T00:23:51.913Z,17.52
2018-07-19T00:24:58.391Z,17.49
2018-07-19T00:26:04.864Z,17.50
2018-07-19T00:27:11.366Z,17.46
2018-07-19T00:28:17.825Z,17.40
2018-07-19T00:29:24.305Z,17.33
2018-07-19T00:30:30.756Z,17.29
2018-07-19T00:31:37.245Z,17.36
2018-07-19T00:32:43.727Z,17.36
2018-07-19T00:33:50.171Z,17.38
2018-07-19T00:34:56.644Z,17.38
2018-07-19T00:36:03.118Z,17.38
2018-07-19T00:37:09.583Z,17.33
2018-07-19T00:38:16.046Z,17.33
2018-07-19T00:39:22.541Z,17.36
2018-07-19T00:40:28.982Z,17.36
2018-07-19T00:41:35.449Z,17.39
2018-07-19T00:42:41.942Z,17.49
2018-07-19T00:43:48.392Z,17.50
2018-07-19T00:44:54.856Z,17.49
2018-07-19T00:46:02.327Z,17.49
2018-07-19T00:47:07.896Z,17.53
2018-07-19T00:48:14.267Z,17.52
2018-07-19T00:49:20.746Z,17.52
2018-07-19T00:50:27.202Z,17.57
2018-07-19T00:51:33.682Z,17.56
2018-07-19T00:52:40.156Z,17.58
2018-07-19T00:53:46.620Z,17.55
2018-07-19T00:54:53.067Z,17.54
2018-07-19T00:55:59.534Z,17.52
2018-07-19T00:57:05.998Z,17.47
2018-07-19T00:58:12.463Z,17.48
2018-07-19T00:59:18.938Z,17.49
2018-07-19T01:00:26.898Z,17.45
2018-07-19T01:01:31.868Z,17.43
2018-07-19T01:02:38.363Z,17.41
2018-07-19T01:03:44.805Z,17.41
2018-07-19T01:04:51.260Z,17.40
2018-07-19T01:05:57.732Z,17.35
2018-07-19T01:07:04.193Z,17.25
2018-07-19T01:08:10.673Z,17.19
2018-07-19T01:09:17.134Z,17.28
2018-07-19T01:10:23.593Z,17.32
2018-07-19T01:11:30.059Z,17.26
2018-07-19T01:12:36.528Z,17.21
2018-07-19T01:13:43.483Z,17.23
2018-07-19T01:14:49.461Z,17.22
2018-07-19T01:15:55.927Z,17.24
2018-07-19T01:17:02.438Z,17.19
2018-07-19T01:18:08.871Z,17.15
2018-07-19T01:19:15.322Z,17.03
2018-07-19T01:20:21.768Z,17.01
2018-07-19T01:21:28.230Z,17.10
2018-07-19T01:22:34.701Z,17.12
2018-07-19T01:23:41.170Z,17.13
2018-07-19T01:24:48.140Z,17.11
2018-07-19T01:25:54.092Z,17.11
2018-07-19T01:27:00.589Z,17.12
2018-07-19T01:28:07.024Z,17.15
2018-07-19T01:29:13.482Z,17.20
2018-07-19T01:30:19.944Z,17.22
2018-07-19T01:31:26.402Z,17.26
2018-07-19T01:32:32.875Z,17.27
2018-07-19T01:33:39.321Z,17.21
2018-07-19T01:34:45.888Z,17.12
2018-07-19T01:35:52.244Z,17.11
2018-07-19T01:36:58.701Z,17.08
2018-07-19T01:38:05.200Z,17.01
2018-07-19T01:39:11.655Z,17.01
2018-07-19T01:40:18.090Z,17.11
2018-07-19T01:41:25.550Z,17.10
2018-07-19T01:42:31.011Z,17.06
2018-07-19T01:43:37.473Z,16.99
2018-07-19T01:44:43.935Z,16.96
2018-07-19T01:45:50.396Z,16.96
2018-07-19T01:46:56.854Z,17.01
2018-07-19T01:48:03.326Z,17.04
2018-07-19T01:49:09.889Z,17.07
2018-07-19T01:50:16.263Z,17.05
2018-07-19T01:51:22.698Z,17.01
2018-07-19T01:52:29.158Z,17.02
2018-07-19T01:53:35.615Z,16.98
2018-07-19T01:54:42.071Z,16.97
2018-07-19T01:55:48.527Z,16.90
2018-07-19T01:56:54.989Z,16.77
2018-07-19T01:58:01.464Z,16.68
2018-07-19T01:59:07.903Z,16.68
2018-07-19T02:00:14.417Z,16.62
2018-07-19T02:01:20.821Z,16.50
2018-07-19T02:02:27.279Z,16.43
2018-07-19T02:03:33.743Z,16.48
2018-07-19T02:04:40.195Z,16.56
2018-07-19T02:05:46.658Z,16.61
2018-07-19T02:06:53.104Z,16.79
2018-07-19T02:08:00.059Z,16.86
2018-07-19T02:09:06.013Z,16.91
2018-07-19T02:10:12.469Z,16.94
2018-07-19T02:11:18.918Z,16.94
2018-07-19T02:12:25.376Z,16.99
2018-07-19T02:13:31.932Z,16.95
2018-07-19T02:14:38.283Z,16.88
2018-07-19T02:15:44.731Z,16.84
2018-07-19T02:16:51.206Z,16.91
2018-07-19T02:17:57.838Z,17.04
2018-07-19T02:19:05.116Z,16.98
2018-07-19T02:20:10.536Z,16.98
2018-07-19T02:21:16.990Z,17.02
2018-07-19T02:22:23.455Z,17.01
2018-07-19T02:23:29.907Z,17.04
2018-07-19T02:24:36.347Z,17.03
2018-07-19T02:25:42.817Z,17.03
2018-07-19T02:26:49.260Z,17.01
2018-07-19T02:27:56.212Z,16.99
2018-07-19T02:29:03.190Z,16.93
2018-07-19T02:30:08.628Z,16.98
2018-07-19T02:31:16.076Z,17.00
2018-07-19T02:32:21.516Z,17.02
2018-07-19T02:33:27.971Z,17.04
2018-07-19T02:34:34.427Z,16.99
2018-07-19T02:35:40.880Z,16.88
2018-07-19T02:36:47.336Z,16.77
2018-07-19T02:37:53.780Z,16.68
2018-07-19T02:39:00.239Z,16.63
2018-07-19T02:40:06.677Z,16.60
2018-07-19T02:41:13.131Z,16.54
2018-07-19T02:42:19.574Z,16.47
2018-07-19T02:43:26.034Z,16.54
2018-07-19T02:44:32.472Z,16.54
2018-07-19T02:45:38.926Z,16.50
2018-07-19T02:46:45.373Z,16.43
2018-07-19T02:47:51.923Z,16.40
2018-07-19T02:48:58.267Z,16.43
2018-07-19T02:50:04.710Z,16.38
2018-07-19T02:51:11.153Z,16.38
2018-07-19T02:52:17.597Z,16.39
2018-07-19T02:53:24.051Z,16.35
2018-07-19T02:54:30.486Z,16.40
2018-07-19T02:55:36.930Z,16.44
2018-07-19T02:56:43.405Z,16.45
2018-07-19T02:57:49.896Z,16.44
2018-07-19T02:58:56.265Z,16.44
2018-07-19T03:00:02.704Z,16.34
2018-07-19T03:01:09.144Z,16.30
2018-07-19T03:02:15.598Z,16.31
2018-07-19T03:03:22.033Z,16.30
2018-07-19T03:04:28.462Z,16.25
2018-07-19T03:05:34.900Z,16.23
2018-07-19T03:06:41.354Z,16.25
2018-07-19T03:07:47.914Z,16.25
2018-07-19T03:08:54.230Z,16.21
2018-07-19T03:10:00.662Z,16.15
2018-07-19T03:11:07.102Z,16.12
2018-07-19T03:12:13.559Z,16.10
2018-07-19T03:13:19.985Z,16.10
2018-07-19T03:14:26.413Z,16.07
2018-07-19T03:15:32.852Z,16.06
2018-07-19T03:16:39.276Z,16.10
2018-07-19T03:17:45.719Z,16.11
2018-07-19T03:18:52.155Z,16.08
2018-07-19T03:19:58.599Z,15.99
2018-07-19T03:21:05.026Z,15.95
2018-07-19T03:22:11.478Z,15.97
2018-07-19T03:23:17.904Z,15.94
2018-07-19T03:24:24.337Z,15.97
2018-07-19T03:25:30.764Z,15.96
2018-07-19T03:26:37.204Z,15.98
2018-07-19T03:27:44.141Z,16.01
2018-07-19T03:28:50.093Z,15.97
2018-07-19T03:29:56.519Z,16.01
2018-07-19T03:31:02.984Z,16.07
2018-07-19T03:32:09.395Z,16.07
2018-07-19T03:33:15.866Z,16.02
2018-07-19T03:34:22.290Z,15.94
2018-07-19T03:35:28.716Z,15.93
2018-07-19T03:36:35.648Z,15.92
2018-07-19T03:37:41.594Z,15.92
2018-07-19T03:38:48.038Z,15.85
2018-07-19T03:39:54.473Z,15.72
2018-07-19T03:41:00.911Z,15.67
2018-07-19T03:42:07.339Z,15.69
2018-07-19T03:43:13.777Z,15.77
2018-07-19T03:44:20.230Z,15.86
2018-07-19T03:45:26.661Z,15.93
2018-07-19T03:46:33.097Z,15.95
2018-07-19T03:47:39.521Z,15.93
2018-07-19T03:48:45.967Z,15.89
2018-07-19T03:49:52.394Z,15.84
2018-07-19T03:50:58.827Z,15.87
2018-07-19T03:52:05.268Z,15.90
2018-07-19T03:53:11.701Z,15.90
2018-07-19T03:54:18.145Z,15.83
2018-07-19T03:55:24.585Z,15.79
2018-07-19T03:56:31.023Z,15.78
2018-07-19T03:57:37.451Z,15.77
2018-07-19T03:58:43.897Z,15.70
2018-07-19T03:59:50.818Z,15.67
2018-07-19T04:00:56.770Z,15.64
2018-07-19T04:02:03.206Z,15.71
2018-07-19T04:03:09.659Z,15.72
2018-07-19T04:04:16.097Z,15.78
2018-07-19T04:05:22.530Z,15.83
2018-07-19T04:06:28.975Z,15.81
2018-07-19T04:07:35.414Z,15.80
2018-07-19T04:08:41.863Z,15.75
2018-07-19T04:09:48.306Z,15.76
2018-07-19T04:10:54.734Z,15.72
2018-07-19T04:12:01.168Z,15.72
2018-07-19T04:13:08.112Z,15.72
2018-07-19T04:14:14.061Z,15.71
2018-07-19T04:15:20.500Z,15.73
2018-07-19T04:16:26.942Z,15.83
2018-07-19T04:17:33.374Z,15.84
2018-07-19T04:18:40.311Z,15.82
2018-07-19T04:19:46.273Z,15.82
2018-07-19T04:20:52.706Z,15.80
2018-07-19T04:21:59.153Z,15.82
2018-07-19T04:23:05.598Z,15.83
2018-07-19T04:24:12.039Z,15.86
2018-07-19T04:25:18.985Z,15.94
2018-07-19T04:26:25.416Z,16.06
2018-07-19T04:27:31.891Z,16.16
2018-07-19T04:28:37.899Z,16.20
2018-07-19T04:29:44.261Z,16.19
2018-07-19T04:30:50.706Z,16.21
2018-07-19T04:31:57.147Z,16.25
2018-07-19T04:33:03.584Z,16.29
2018-07-19T04:34:10.046Z,16.37
2018-07-19T04:35:16.482Z,16.44
2018-07-19T04:36:22.926Z,16.49
2018-07-19T04:37:29.375Z,16.53
2018-07-19T04:38:35.918Z,16.52
2018-07-19T04:39:42.281Z,16.53
2018-07-19T04:40:48.716Z,16.55
2018-07-19T04:41:55.174Z,16.59
2018-07-19T04:43:01.613Z,16.62
2018-07-19T04:44:08.070Z,16.66
2018-07-19T04:45:14.505Z,16.69
2018-07-19T04:46:20.980Z,16.74
2018-07-19T04:47:27.413Z,16.77
2018-07-19T04:48:33.868Z,16.78
2018-07-19T04:49:40.316Z,16.80
2018-07-19T04:50:46.764Z,16.81
2018-07-19T04:51:53.221Z,16.82
2018-07-19T04:52:59.668Z,16.88
2018-07-19T04:54:06.135Z,16.89
2018-07-19T04:55:12.582Z,16.92
2018-07-19T04:56:19.043Z,16.95
2018-07-19T04:57:25.503Z,17.00
2018-07-19T04:58:32.144Z,17.06
2018-07-19T04:59:38.423Z,17.10
2018-07-19T05:00:45.064Z,17.14
2018-07-19T05:01:51.433Z,17.16
2018-07-19T05:02:58.292Z,17.19
2018-07-19T05:04:04.275Z,17.22
2018-07-19T05:05:10.712Z,17.23
2018-07-19T05:06:17.188Z,17.27
2018-07-19T05:07:23.650Z,17.29
2018-07-19T05:08:30.115Z,17.32
2018-07-19T05:09:36.588Z,17.38
2018-07-19T05:10:43.050Z,17.41
2018-07-19T05:11:49.512Z,17.49
2018-07-19T05:12:55.975Z,17.53
2018-07-19T05:14:02.447Z,17.55
2018-07-19T05:15:08.932Z,17.57
2018-07-19T05:16:15.395Z,17.62
2018-07-19T05:17:21.892Z,17.65
2018-07-19T05:18:28.345Z,17.69
2018-07-19T05:19:34.822Z,17.71
2018-07-19T05:20:41.292Z,17.72
2018-07-19T05:21:47.768Z,17.72
2018-07-19T05:22:54.248Z,17.73
2018-07-19T05:24:00.718Z,17.75
2018-07-19T05:25:07.214Z,17.76
2018-07-19T05:26:13.684Z,17.79
2018-07-19T05:27:20.171Z,17.80
2018-07-19T05:28:26.642Z,17.83
2018-07-19T05:29:33.146Z,17.90
2018-07-19T05:30:39.620Z,17.92
2018-07-19T05:31:46.099Z,17.94
2018-07-19T05:32:52.586Z,17.98
2018-07-19T05:33:59.071Z,18.03
2018-07-19T05:35:05.557Z,18.06
2018-07-19T05:36:12.054Z,18.04
2018-07-19T05:37:18.530Z,18.05
2018-07-19T05:38:25.021Z,18.05
2018-07-19T05:39:31.521Z,18.06
2018-07-19T05:40:38.596Z,18.04
2018-07-19T05:41:44.990Z,18.08
2018-07-19T05:42:50.984Z,18.13
2018-07-19T05:43:57.475Z,18.16
2018-07-19T05:45:03.971Z,18.16
2018-07-19T05:46:10.456Z,18.16
2018-07-19T05:47:16.977Z,18.18
2018-07-19T05:48:23.466Z,18.20
2018-07-19T05:49:29.952Z,18.22
2018-07-19T05:50:36.443Z,18.23
2018-07-19T05:51:42.935Z,18.23
2018-07-19T05:52:49.438Z,18.24
2018-07-19T05:53:55.927Z,18.29
2018-07-19T05:55:02.442Z,18.31
2018-07-19T05:56:09.433Z,18.33
2018-07-19T05:57:15.440Z,18.35
2018-07-19T05:58:22.001Z,18.37
2018-07-19T05:59:28.684Z,18.41
2018-07-19T06:00:34.955Z,18.41
2018-07-19T06:01:41.474Z,18.43
2018-07-19T06:02:47.958Z,18.46
2018-07-19T06:03:54.470Z,18.49
2018-07-19T06:05:00.985Z,18.53
2018-07-19T06:06:07.527Z,18.54
2018-07-19T06:07:14.513Z,18.56
2018-07-19T06:08:20.554Z,18.55
2018-07-19T06:09:27.009Z,18.58
2018-07-19T06:10:33.536Z,18.63
2018-07-19T06:11:40.033Z,18.65
2018-07-19T06:12:46.557Z,18.69
2018-07-19T06:13:53.059Z,18.71
2018-07-19T06:14:59.582Z,18.72
2018-07-19T06:16:06.115Z,18.73
2018-07-19T06:17:12.603Z,18.76
2018-07-19T06:18:19.120Z,18.81
2018-07-19T06:19:25.641Z,18.83
2018-07-19T06:20:32.173Z,18.83
2018-07-19T06:21:38.672Z,18.88
2018-07-19T06:22:45.208Z,18.91
2018-07-19T06:23:51.719Z,18.92
2018-07-19T06:24:58.233Z,19.00
2018-07-19T06:26:04.753Z,19.01
2018-07-19T06:27:11.271Z,18.99
2018-07-19T06:28:17.909Z,19.01
2018-07-19T06:29:24.309Z,19.05
2018-07-19T06:30:30.841Z,19.10
2018-07-19T06:31:37.431Z,19.15
2018-07-19T06:32:43.895Z,19.21
2018-07-19T06:33:50.412Z,19.28
2018-07-19T06:34:56.950Z,19.35
2018-07-19T06:36:03.475Z,19.44
2018-07-19T06:37:10.010Z,19.50
2018-07-19T06:38:16.549Z,19.55
2018-07-19T06:39:23.079Z,19.52
2018-07-19T06:40:29.607Z,19.54
2018-07-19T06:41:36.137Z,19.53
2018-07-19T06:42:42.671Z,19.59
2018-07-19T06:43:49.213Z,19.65
2018-07-19T06:44:55.760Z,19.71
2018-07-19T06:46:02.297Z,19.78
2018-07-19T06:47:08.837Z,19.79
2018-07-19T06:48:15.393Z,19.82
2018-07-19T06:49:21.962Z,19.85
2018-07-19T06:50:28.507Z,19.88
2018-07-19T06:51:35.079Z,19.88
2018-07-19T06:52:41.616Z,19.90
2018-07-19T06:53:48.179Z,19.94
2018-07-19T06:54:54.769Z,20.00
2018-07-19T06:56:01.313Z,20.08
2018-07-19T06:57:07.863Z,20.15
2018-07-19T06:58:14.436Z,20.19
2018-07-19T06:59:21.008Z,20.20
2018-07-19T07:00:27.583Z,20.29
2018-07-19T07:01:34.141Z,20.38
2018-07-19T07:02:40.723Z,20.46
2018-07-19T07:03:47.294Z,20.52
2018-07-19T07:04:53.866Z,20.59
2018-07-19T07:06:00.453Z,20.61
2018-07-19T07:07:07.023Z,20.64
2018-07-19T07:08:13.608Z,20.65
2018-07-19T07:09:20.198Z,20.67
2018-07-19T07:10:26.782Z,20.69
2018-07-19T07:11:33.376Z,20.74
2018-07-19T07:12:39.947Z,20.63
2018-07-19T07:13:46.536Z,20.60
2018-07-19T07:14:53.153Z,20.63
2018-07-19T07:15:59.716Z,20.68
2018-07-19T07:17:06.301Z,20.74
2018-07-19T07:18:12.900Z,20.82
2018-07-19T07:19:19.489Z,20.93
2018-07-19T07:20:26.091Z,20.97
2018-07-19T07:21:32.681Z,21.03
2018-07-19T07:22:39.279Z,21.07
2018-07-19T07:23:45.884Z,21.13
2018-07-19T07:24:52.481Z,21.21
2018-07-19T07:25:59.100Z,21.20
2018-07-19T07:27:06.699Z,21.28
2018-07-19T07:28:12.310Z,21.68
2018-07-19T07:29:18.918Z,22.32
2018-07-19T07:30:25.532Z,22.64
2018-07-19T07:31:32.144Z,22.35
2018-07-19T07:32:38.748Z,22.16
2018-07-19T07:33:45.368Z,22.03
2018-07-19T07:34:51.979Z,22.15
2018-07-19T07:35:58.613Z,23.18
2018-07-19T07:37:05.213Z,24.49
2018-07-19T07:38:11.841Z,25.94
2018-07-19T07:39:18.465Z,26.50
2018-07-19T07:40:25.090Z,26.02
2018-07-19T07:41:31.687Z,25.00
2018-07-19T07:42:38.309Z,24.13
2018-07-19T07:43:44.929Z,23.68
2018-07-19T07:44:51.567Z,23.39
2018-07-19T07:45:58.189Z,23.22
2018-07-19T07:47:04.817Z,23.07
2018-07-19T07:48:11.441Z,23.03
2018-07-19T07:49:18.079Z,22.98
2018-07-19T07:50:24.724Z,22.79
2018-07-19T07:51:31.347Z,22.65
2018-07-19T07:52:37.995Z,22.55
2018-07-19T07:53:44.632Z,22.60
2018-07-19T07:54:51.271Z,22.63
2018-07-19T07:55:57.927Z,22.62
2018-07-19T07:57:04.566Z,22.58
2018-07-19T07:58:11.222Z,22.57
2018-07-19T07:59:17.902Z,22.62
2018-07-19T08:00:24.571Z,22.65
2018-07-19T08:01:31.180Z,22.71
2018-07-19T08:02:37.837Z,22.75
2018-07-19T08:03:44.491Z,22.76
2018-07-19T08:04:51.144Z,22.74
2018-07-19T08:05:57.917Z,22.77
2018-07-19T08:07:04.468Z,22.88
2018-07-19T08:08:11.149Z,22.92
2018-07-19T08:09:17.899Z,22.94
2018-07-19T08:10:24.456Z,22.99
2018-07-19T08:11:31.133Z,22.91
2018-07-19T08:12:37.798Z,22.96
2018-07-19T08:13:44.462Z,23.00
2018-07-19T08:14:51.136Z,23.08
2018-07-19T08:15:57.921Z,23.22
2018-07-19T08:17:04.493Z,23.24
2018-07-19T08:18:11.169Z,23.16
2018-07-19T08:19:17.860Z,23.03
2018-07-19T08:20:24.540Z,23.00
2018-07-19T08:21:31.233Z,23.07
2018-07-19T08:22:37.909Z,23.19
2018-07-19T08:23:44.593Z,23.27
2018-07-19T08:24:51.281Z,23.34
2018-07-19T08:25:57.971Z,23.38
2018-07-19T08:27:04.664Z,23.43
2018-07-19T08:28:11.351Z,23.41
2018-07-19T08:29:18.531Z,23.44
2018-07-19T08:30:24.736Z,23.42
2018-07-19T08:31:31.444Z,23.32
2018-07-19T08:32:38.147Z,23.19
2018-07-19T08:33:44.829Z,23.12
2018-07-19T08:34:52.026Z,23.13
2018-07-19T08:35:58.247Z,23.18
2018-07-19T08:37:04.927Z,23.24
2018-07-19T08:38:11.628Z,23.37
2018-07-19T08:39:18.336Z,23.53
2018-07-19T08:40:25.037Z,23.64
2018-07-19T08:41:31.754Z,23.70
2018-07-19T08:42:38.458Z,23.76
2018-07-19T08:43:45.166Z,23.82
2018-07-19T08:44:51.884Z,23.85
2018-07-19T08:45:58.601Z,23.89
2018-07-19T08:47:05.309Z,23.91
2018-07-19T08:48:12.049Z,23.94
2018-07-19T08:49:18.745Z,23.93
2018-07-19T08:50:25.468Z,23.94
2018-07-19T08:51:32.211Z,23.91
2018-07-19T08:52:38.915Z,23.83
2018-07-19T08:53:45.638Z,23.83
2018-07-19T08:54:52.370Z,23.93
2018-07-19T08:58:12.564Z,24.19
2018-07-19T08:59:19.289Z,24.35
2018-07-19T09:00:26.020Z,24.43
2018-07-19T09:01:32.765Z,24.49
2018-07-19T09:02:39.488Z,24.59
2018-07-19T09:03:46.233Z,24.59
2018-07-19T09:04:52.979Z,24.59
2018-07-19T09:05:59.724Z,24.58
2018-07-19T09:07:06.458Z,24.58
2018-07-19T09:08:13.205Z,24.53
2018-07-19T09:09:19.968Z,24.54
2018-07-19T09:10:26.709Z,24.65
2018-07-19T09:11:33.467Z,24.76
2018-07-19T09:12:40.217Z,24.82
2018-07-19T09:13:47.160Z,24.82
2018-07-19T09:14:53.739Z,24.74
2018-07-19T09:16:00.488Z,24.58
2018-07-19T09:17:07.237Z,24.57
2018-07-19T09:18:13.995Z,24.71
2018-07-19T09:19:20.779Z,24.82
2018-07-19T09:20:27.515Z,24.74
2018-07-19T09:21:34.289Z,24.69
2018-07-19T09:22:41.093Z,24.73
2018-07-19T09:23:47.899Z,24.75
2018-07-19T09:24:54.585Z,24.69
2018-07-19T09:26:01.357Z,24.58
2018-07-19T09:27:08.120Z,24.54
2018-07-19T09:28:14.895Z,24.49
2018-07-19T09:29:21.661Z,24.48
2018-07-19T09:30:28.447Z,24.66
2018-07-19T09:31:35.418Z,24.87
2018-07-19T09:32:42.024Z,25.06
2018-07-19T09:33:48.766Z,25.12
2018-07-19T09:34:55.539Z,25.11
2018-07-19T09:36:02.311Z,25.09
2018-07-19T09:37:09.095Z,25.07
2018-07-19T09:38:15.919Z,24.90
2018-07-19T09:39:22.631Z,24.79
2018-07-19T09:40:29.416Z,24.67
2018-07-19T09:41:36.198Z,24.59
2018-07-19T09:42:42.960Z,24.56
2018-07-19T09:43:49.727Z,24.59
2018-07-19T09:44:56.509Z,24.74
2018-07-19T09:46:03.281Z,24.87
2018-07-19T09:47:10.052Z,25.08
2018-07-19T09:48:16.821Z,25.31
2018-07-19T09:49:23.584Z,25.39
2018-07-19T09:50:31.892Z,25.41
2018-07-19T09:51:37.153Z,25.53
2018-07-19T09:52:43.917Z,25.48
2018-07-19T09:53:50.682Z,25.43
2018-07-19T09:54:57.454Z,25.43
2018-07-19T09:56:04.231Z,25.43
2018-07-19T09:57:11.019Z,25.37
2018-07-19T09:58:17.901Z,25.20
2018-07-19T09:59:24.588Z,25.21
2018-07-19T10:00:31.339Z,25.28
2018-07-19T10:01:39.130Z,25.45
2018-07-19T10:02:44.909Z,25.55
2018-07-19T10:03:51.676Z,25.70
2018-07-19T10:04:58.458Z,25.75
2018-07-19T10:06:05.743Z,25.82
2018-07-19T10:07:12.038Z,25.93
2018-07-19T10:08:18.804Z,25.99
2018-07-19T10:09:25.592Z,25.93
2018-07-19T10:10:32.392Z,25.88
2018-07-19T10:11:39.160Z,25.83
2018-07-19T10:12:45.932Z,25.78
2018-07-19T10:13:52.705Z,25.76
2018-07-19T10:14:59.490Z,25.86
2018-07-19T10:16:06.277Z,25.93
2018-07-19T10:17:13.078Z,26.02
2018-07-19T10:18:19.855Z,26.14
2018-07-19T10:19:26.635Z,26.20
2018-07-19T10:20:33.441Z,26.25
2018-07-19T10:21:40.238Z,26.27
2018-07-19T10:22:47.012Z,26.27
2018-07-19T10:23:53.894Z,26.20
2018-07-19T10:25:00.597Z,26.11
2018-07-19T10:26:07.412Z,25.82
2018-07-19T10:27:14.196Z,25.61
2018-07-19T10:28:20.994Z,25.43
2018-07-19T10:29:27.896Z,25.28
2018-07-19T10:30:34.583Z,25.21
2018-07-19T10:31:41.390Z,25.18
2018-07-19T10:32:48.248Z,25.25
2018-07-19T10:33:54.976Z,25.28
2018-07-19T10:35:01.780Z,25.37
2018-07-19T10:36:08.577Z,25.35
2018-07-19T10:37:15.378Z,25.37
2018-07-19T10:38:22.198Z,25.35
2018-07-19T10:39:29.970Z,25.41
2018-07-19T10:40:35.769Z,25.53
2018-07-19T10:41:42.582Z,25.57
2018-07-19T10:42:50.370Z,25.57
2018-07-19T10:43:56.170Z,25.50
2018-07-19T10:45:02.983Z,25.49
2018-07-19T10:46:09.777Z,25.51
2018-07-19T10:47:16.576Z,25.67
2018-07-19T10:48:23.378Z,25.79
2018-07-19T10:49:30.172Z,25.99
2018-07-19T10:50:36.962Z,26.06
2018-07-19T10:51:43.849Z,26.20
2018-07-19T10:52:50.566Z,26.23
2018-07-19T10:53:57.370Z,26.23
2018-07-19T10:55:04.177Z,26.18
2018-07-19T10:56:10.996Z,26.02
2018-07-19T10:57:17.915Z,25.98
2018-07-19T10:58:25.090Z,26.05
2018-07-19T10:59:31.414Z,26.01
2018-07-19T11:00:38.219Z,26.03
2018-07-19T11:01:45.043Z,25.94
2018-07-19T11:02:51.875Z,25.94
2018-07-19T11:03:58.658Z,25.98
2018-07-19T11:05:05.482Z,26.04
2018-07-19T11:06:12.301Z,26.35
2018-07-19T11:07:19.124Z,26.58
2018-07-19T11:08:25.936Z,26.68
2018-07-19T11:09:32.820Z,26.74
2018-07-19T11:10:39.613Z,26.75
2018-07-19T11:11:46.469Z,26.87
2018-07-19T11:12:53.392Z,27.00
2018-07-19T11:14:00.366Z,27.08
2018-07-19T11:15:07.435Z,27.03
2018-07-19T11:16:14.569Z,26.84
2018-07-19T11:17:21.779Z,26.90
2018-07-19T11:18:29.042Z,27.05
2018-07-19T11:19:36.364Z,27.12
2018-07-19T11:20:43.739Z,27.19
2018-07-19T11:21:51.165Z,27.21
2018-07-19T11:22:58.651Z,27.22
2018-07-19T11:24:07.147Z,27.22
2018-07-19T11:25:13.707Z,27.26
2018-07-19T11:26:21.304Z,27.25
2018-07-19T11:27:28.908Z,27.29
2018-07-19T11:28:36.545Z,27.37
2018-07-19T11:29:44.233Z,27.45
2018-07-19T11:30:51.939Z,27.51
2018-07-19T11:31:59.676Z,27.57
2018-07-19T11:33:07.425Z,27.40
2018-07-19T11:34:15.212Z,27.27
2018-07-19T11:35:23.045Z,27.40
2018-07-19T11:36:30.821Z,27.41
2018-07-19T11:37:38.657Z,27.34
2018-07-19T11:38:46.498Z,27.39
2018-07-19T11:39:54.355Z,27.40
2018-07-19T11:41:02.219Z,27.40
2018-07-19T11:42:10.129Z,27.40
2018-07-19T11:43:18.035Z,27.26
2018-07-19T11:44:25.969Z,27.15
2018-07-19T11:45:33.929Z,27.24
2018-07-19T11:46:41.876Z,27.18
2018-07-19T11:47:49.864Z,27.31
2018-07-19T11:48:57.863Z,27.49
2018-07-19T11:50:05.843Z,27.68
2018-07-19T11:51:13.856Z,27.55
2018-07-19T11:52:21.920Z,27.61
2018-07-19T11:53:29.904Z,27.64
2018-07-19T11:54:37.950Z,27.47
2018-07-19T11:55:46.016Z,27.31
2018-07-19T11:56:54.080Z,27.14
2018-07-19T11:58:02.151Z,26.97
2018-07-19T11:59:10.227Z,26.84
2018-07-19T12:00:18.320Z,26.83
2018-07-19T12:01:26.419Z,27.04
2018-07-19T12:02:34.525Z,27.26
2018-07-19T12:03:42.611Z,27.36
2018-07-19T12:04:50.707Z,27.50
2018-07-19T12:05:59.297Z,27.57
2018-07-19T12:07:06.897Z,27.64
2018-07-19T12:08:15.002Z,27.66
2018-07-19T12:09:23.102Z,27.75
2018-07-19T12:10:31.204Z,27.87
2018-07-19T12:11:39.327Z,27.90
2018-07-19T12:12:47.467Z,27.57
2018-07-19T12:13:55.591Z,27.22
2018-07-19T12:15:03.735Z,27.22
2018-07-19T12:16:11.865Z,27.23
2018-07-19T12:17:20.021Z,27.19
2018-07-19T12:18:28.156Z,27.49
2018-07-19T12:19:36.286Z,27.45
2018-07-19T12:20:44.429Z,27.44
2018-07-19T12:21:52.563Z,27.60
2018-07-19T12:23:00.709Z,27.75
2018-07-19T12:24:08.846Z,27.84
2018-07-19T12:25:16.995Z,27.69
2018-07-19T12:26:25.143Z,27.74
2018-07-19T12:27:33.312Z,27.69
2018-07-19T12:28:41.477Z,27.78
2018-07-19T12:29:49.648Z,27.96
2018-07-19T12:30:57.835Z,28.17
2018-07-19T12:32:06.011Z,27.96
2018-07-19T12:33:14.213Z,27.47
2018-07-19T12:34:22.880Z,27.40
2018-07-19T12:35:30.574Z,27.30
2018-07-19T12:36:38.759Z,27.34
2018-07-19T12:37:46.953Z,27.50
2018-07-19T12:38:55.133Z,27.64
2018-07-19T12:40:03.331Z,27.64
2018-07-19T12:41:11.525Z,27.59
2018-07-19T12:42:19.727Z,27.72
2018-07-19T12:43:27.913Z,27.89
2018-07-19T12:44:36.101Z,28.01
2018-07-19T12:45:44.289Z,28.07
2018-07-19T12:46:52.465Z,28.19
2018-07-19T12:48:00.644Z,28.22
2018-07-19T12:49:08.824Z,27.92
2018-07-19T12:50:16.984Z,27.75
2018-07-19T12:51:25.166Z,27.80
2018-07-19T12:52:33.341Z,27.95
2018-07-19T12:53:41.505Z,28.09
2018-07-19T12:54:49.668Z,28.19
2018-07-19T12:55:57.835Z,28.03
2018-07-19T12:57:06.017Z,27.96
2018-07-19T12:58:14.162Z,28.03
2018-07-19T12:59:22.294Z,28.22
2018-07-19T13:00:30.437Z,28.29
2018-07-19T13:01:38.561Z,28.42
2018-07-19T13:02:46.718Z,28.46
2018-07-19T13:03:54.832Z,28.48
2018-07-19T13:05:02.964Z,28.45
2018-07-19T13:06:11.079Z,28.42
2018-07-19T13:07:19.201Z,28.39
2018-07-19T13:08:27.327Z,28.46
2018-07-19T13:09:35.443Z,28.52
2018-07-19T13:10:43.569Z,28.57
2018-07-19T13:11:51.694Z,28.81
2018-07-19T13:12:59.840Z,29.18
2018-07-19T13:14:08.007Z,29.52
2018-07-19T13:15:16.125Z,29.90
2018-07-19T13:16:24.235Z,30.21
2018-07-19T13:17:32.372Z,30.27
2018-07-19T13:18:40.498Z,30.26
2018-07-19T13:19:48.626Z,30.20
2018-07-19T13:20:56.759Z,30.02
2018-07-19T13:22:04.942Z,30.01
2018-07-19T13:23:13.554Z,30.10
2018-07-19T13:24:21.209Z,29.90
2018-07-19T13:25:29.358Z,29.78
2018-07-19T13:26:37.515Z,29.66
2018-07-19T13:27:45.681Z,29.39
2018-07-19T13:28:53.843Z,28.98
2018-07-19T13:30:01.999Z,28.81
2018-07-19T13:31:10.140Z,28.75
2018-07-19T13:32:18.295Z,28.59
2018-07-19T13:33:26.442Z,28.67
2018-07-19T13:34:34.569Z,28.64
2018-07-19T13:35:42.692Z,28.70
2018-07-19T13:36:50.879Z,28.94
2018-07-19T13:37:58.972Z,29.26
2018-07-19T13:39:07.127Z,29.51
2018-07-19T13:40:15.310Z,29.70
2018-07-19T13:41:23.460Z,30.11
2018-07-19T13:42:31.663Z,30.11
2018-07-19T13:43:39.905Z,29.91
2018-07-19T13:44:48.008Z,29.68
2018-07-19T13:45:56.216Z,29.49
2018-07-19T13:47:04.414Z,29.58
2018-07-19T13:48:12.672Z,29.79
2018-07-19T13:49:20.872Z,30.03
2018-07-19T13:50:30.098Z,30.06
2018-07-19T13:51:37.329Z,30.09
2018-07-19T13:52:45.576Z,30.12
2018-07-19T13:53:53.904Z,30.10
2018-07-19T13:55:02.058Z,30.27
2018-07-19T13:56:10.317Z,30.39
2018-07-19T13:57:18.536Z,30.59
2018-07-19T13:58:26.807Z,30.56
2018-07-19T13:59:34.996Z,30.43
2018-07-19T14:00:43.222Z,30.42
2018-07-19T14:01:51.472Z,30.27
2018-07-19T14:02:59.679Z,30.10
2018-07-19T14:04:07.902Z,29.90
2018-07-19T14:05:16.099Z,29.74
2018-07-19T14:06:24.278Z,29.74
2018-07-19T14:07:32.448Z,29.74
2018-07-19T14:08:40.616Z,29.78
2018-07-19T14:09:48.767Z,29.96
2018-07-19T14:10:56.908Z,30.15
2018-07-19T14:12:05.053Z,30.21
2018-07-19T14:13:13.205Z,30.23
2018-07-19T14:14:21.310Z,30.31
2018-07-19T14:15:29.637Z,30.40
2018-07-19T14:16:37.574Z,30.60
2018-07-19T14:17:45.708Z,30.65
2018-07-19T14:18:53.914Z,30.60
2018-07-19T14:20:01.945Z,30.69
2018-07-19T14:21:11.246Z,30.79
2018-07-19T14:22:18.172Z,30.84
2018-07-19T14:23:26.286Z,30.93